sensor_id;sensor_type;location;lat;lon;timestamp;P1;durP1;ratioP1;P2;durP2;ratioP2
69623;SDS011;56843;52.020;5.670;2023-03-21T00:00:09;10.47;;;5.73;;
69623;SDS011;56843;52.020;5.670;2023-03-21T00:01:40;12.48;;;5.95;;
69623;SDS011;56843;52.020;5.670;2023-03-21T00:03:11;11.17;;;5.67;;
69623;SDS011;56843;52.020;5.670;2023-03-21T00:04:41;14.88;;;6.35;;
69623;SDS011;56843;52.020;5.670;2023-03-21T00:06:12;16.07;;;6.03;;
69623;SDS011;56843;52.020;5.670;2023-03-21T00:07:43;10.32;;;5.50;;
69623;SDS011;56843;52.020;5.670;2023-03-21T00:09:13;13.20;;;6.40;;
69623;SDS011;56843;52.020;5.670;2023-03-21T00:10:44;13.77;;;5.68;;
69623;SDS011;56843;52.020;5.670;2023-03-21T00:12:14;10.63;;;5.63;;
69623;SDS011;56843;52.020;5.670;2023-03-21T00:13:45;11.73;;;5.05;;
69623;SDS011;56843;52.020;5.670;2023-03-21T00:15:16;12.27;;;5.13;;
69623;SDS011;56843;52.020;5.670;2023-03-21T00:16:47;10.85;;;5.60;;
69623;SDS011;56843;52.020;5.670;2023-03-21T00:18:20;12.82;;;6.00;;
69623;SDS011;56843;52.020;5.670;2023-03-21T00:19:52;8.75;;;4.60;;
69623;SDS011;56843;52.020;5.670;2023-03-21T00:21:23;12.77;;;5.25;;
69623;SDS011;56843;52.020;5.670;2023-03-21T00:22:57;11.35;;;6.00;;
69623;SDS011;56843;52.020;5.670;2023-03-21T00:24:27;12.07;;;5.77;;
69623;SDS011;56843;52.020;5.670;2023-03-21T00:25:58;17.93;;;5.97;;
69623;SDS011;56843;52.020;5.670;2023-03-21T00:27:30;17.13;;;6.80;;
69623;SDS011;56843;52.020;5.670;2023-03-21T00:29:02;17.00;;;5.60;;
69623;SDS011;56843;52.020;5.670;2023-03-21T00:30:33;13.73;;;6.05;;
69623;SDS011;56843;52.020;5.670;2023-03-21T00:32:03;12.90;;;6.10;;
69623;SDS011;56843;52.020;5.670;2023-03-21T00:33:34;14.57;;;6.75;;
69623;SDS011;56843;52.020;5.670;2023-03-21T00:35:08;15.98;;;6.10;;
69623;SDS011;56843;52.020;5.670;2023-03-21T00:36:38;11.50;;;4.93;;
69623;SDS011;56843;52.020;5.670;2023-03-21T00:38:10;10.82;;;6.18;;
69623;SDS011;56843;52.020;5.670;2023-03-21T00:39:41;11.27;;;5.40;;
69623;SDS011;56843;52.020;5.670;2023-03-21T00:41:13;10.10;;;4.28;;
69623;SDS011;56843;52.020;5.670;2023-03-21T00:42:43;8.68;;;4.07;;
69623;SDS011;56843;52.020;5.670;2023-03-21T00:44:14;9.70;;;4.93;;
69623;SDS011;56843;52.020;5.670;2023-03-21T00:45:44;14.23;;;6.10;;
69623;SDS011;56843;52.020;5.670;2023-03-21T00:47:15;17.27;;;6.10;;
69623;SDS011;56843;52.020;5.670;2023-03-21T00:48:46;15.03;;;7.27;;
69623;SDS011;56843;52.020;5.670;2023-03-21T00:50:16;8.75;;;4.60;;
69623;SDS011;56843;52.020;5.670;2023-03-21T00:51:47;11.83;;;6.17;;
69623;SDS011;56843;52.020;5.670;2023-03-21T00:53:20;12.35;;;6.93;;
69623;SDS011;56843;52.020;5.670;2023-03-21T00:54:51;9.97;;;4.20;;
69623;SDS011;56843;52.020;5.670;2023-03-21T00:56:21;12.40;;;6.60;;
69623;SDS011;56843;52.020;5.670;2023-03-21T00:57:53;12.18;;;5.60;;
69623;SDS011;56843;52.020;5.670;2023-03-21T00:59:23;11.97;;;5.00;;
69623;SDS011;56843;52.020;5.670;2023-03-21T01:00:53;8.07;;;3.97;;
69623;SDS011;56843;52.020;5.670;2023-03-21T01:02:24;11.18;;;5.68;;
69623;SDS011;56843;52.020;5.670;2023-03-21T01:03:55;15.37;;;6.60;;
69623;SDS011;56843;52.020;5.670;2023-03-21T01:05:36;12.07;;;5.47;;
69623;SDS011;56843;52.020;5.670;2023-03-21T01:07:26;11.98;;;6.18;;
69623;SDS011;56843;52.020;5.670;2023-03-21T01:08:57;11.13;;;5.65;;
69623;SDS011;56843;52.020;5.670;2023-03-21T01:10:27;12.23;;;5.97;;
69623;SDS011;56843;52.020;5.670;2023-03-21T01:11:58;11.77;;;6.50;;
69623;SDS011;56843;52.020;5.670;2023-03-21T01:13:28;13.37;;;6.47;;
69623;SDS011;56843;52.020;5.670;2023-03-21T01:14:59;12.85;;;6.85;;
69623;SDS011;56843;52.020;5.670;2023-03-21T01:16:30;16.73;;;5.77;;
69623;SDS011;56843;52.020;5.670;2023-03-21T01:18:00;12.93;;;6.37;;
69623;SDS011;56843;52.020;5.670;2023-03-21T01:19:31;21.65;;;7.10;;
69623;SDS011;56843;52.020;5.670;2023-03-21T01:21:05;11.45;;;5.97;;
69623;SDS011;56843;52.020;5.670;2023-03-21T01:22:40;16.77;;;6.50;;
69623;SDS011;56843;52.020;5.670;2023-03-21T01:24:11;15.47;;;6.20;;
69623;SDS011;56843;52.020;5.670;2023-03-21T01:25:42;11.13;;;5.17;;
69623;SDS011;56843;52.020;5.670;2023-03-21T01:27:12;10.02;;;5.47;;
69623;SDS011;56843;52.020;5.670;2023-03-21T01:28:43;11.30;;;5.80;;
69623;SDS011;56843;52.020;5.670;2023-03-21T01:30:14;12.60;;;6.67;;
69623;SDS011;56843;52.020;5.670;2023-03-21T01:31:45;10.80;;;6.30;;
69623;SDS011;56843;52.020;5.670;2023-03-21T01:33:16;11.50;;;6.25;;
69623;SDS011;56843;52.020;5.670;2023-03-21T01:34:48;14.80;;;6.07;;
69623;SDS011;56843;52.020;5.670;2023-03-21T01:36:20;12.67;;;6.73;;
69623;SDS011;56843;52.020;5.670;2023-03-21T01:37:53;11.90;;;5.75;;
69623;SDS011;56843;52.020;5.670;2023-03-21T01:39:23;13.43;;;5.50;;
69623;SDS011;56843;52.020;5.670;2023-03-21T01:40:54;13.18;;;6.32;;
69623;SDS011;56843;52.020;5.670;2023-03-21T01:42:29;14.65;;;6.05;;
69623;SDS011;56843;52.020;5.670;2023-03-21T01:44:00;8.20;;;4.35;;
69623;SDS011;56843;52.020;5.670;2023-03-21T01:48:12;8.90;;;4.17;;
69623;SDS011;56843;52.020;5.670;2023-03-21T01:49:50;15.55;;;6.30;;
69623;SDS011;56843;52.020;5.670;2023-03-21T01:51:31;13.88;;;6.60;;
69623;SDS011;56843;52.020;5.670;2023-03-21T01:53:05;14.68;;;6.57;;
69623;SDS011;56843;52.020;5.670;2023-03-21T01:54:37;16.25;;;6.63;;
69623;SDS011;56843;52.020;5.670;2023-03-21T01:56:13;11.70;;;6.00;;
69623;SDS011;56843;52.020;5.670;2023-03-21T01:58:04;10.43;;;6.03;;
69623;SDS011;56843;52.020;5.670;2023-03-21T01:59:49;10.35;;;5.75;;
69623;SDS011;56843;52.020;5.670;2023-03-21T02:03:35;13.23;;;5.50;;
69623;SDS011;56843;52.020;5.670;2023-03-21T02:07:13;10.88;;;5.50;;
69623;SDS011;56843;52.020;5.670;2023-03-21T02:09:01;10.63;;;5.95;;
69623;SDS011;56843;52.020;5.670;2023-03-21T02:10:34;17.00;;;5.90;;
69623;SDS011;56843;52.020;5.670;2023-03-21T02:12:06;13.48;;;5.82;;
69623;SDS011;56843;52.020;5.670;2023-03-21T02:13:38;18.98;;;6.95;;
69623;SDS011;56843;52.020;5.670;2023-03-21T02:15:12;11.25;;;5.97;;
69623;SDS011;56843;52.020;5.670;2023-03-21T02:28:39;12.00;;;6.43;;
69623;SDS011;56843;52.020;5.670;2023-03-21T02:39:07;10.80;;;5.60;;
69623;SDS011;56843;52.020;5.670;2023-03-21T02:40:51;10.67;;;5.03;;
69623;SDS011;56843;52.020;5.670;2023-03-21T02:42:36;11.40;;;5.22;;
69623;SDS011;56843;52.020;5.670;2023-03-21T02:44:18;10.13;;;4.95;;
69623;SDS011;56843;52.020;5.670;2023-03-21T02:46:00;8.00;;;3.97;;
69623;SDS011;56843;52.020;5.670;2023-03-21T02:48:06;15.85;;;5.88;;
69623;SDS011;56843;52.020;5.670;2023-03-21T02:49:45;10.38;;;4.47;;
69623;SDS011;56843;52.020;5.670;2023-03-21T02:51:22;12.73;;;4.70;;
69623;SDS011;56843;52.020;5.670;2023-03-21T02:52:56;11.88;;;5.18;;
69623;SDS011;56843;52.020;5.670;2023-03-21T02:54:30;11.20;;;5.90;;
69623;SDS011;56843;52.020;5.670;2023-03-21T02:56:03;11.37;;;5.37;;
69623;SDS011;56843;52.020;5.670;2023-03-21T02:57:41;10.40;;;5.13;;
69623;SDS011;56843;52.020;5.670;2023-03-21T02:59:15;14.15;;;5.68;;
69623;SDS011;56843;52.020;5.670;2023-03-21T03:00:48;12.70;;;7.28;;
69623;SDS011;56843;52.020;5.670;2023-03-21T03:02:30;11.43;;;6.13;;
69623;SDS011;56843;52.020;5.670;2023-03-21T03:04:01;15.18;;;5.55;;
69623;SDS011;56843;52.020;5.670;2023-03-21T03:05:35;15.63;;;6.30;;
69623;SDS011;56843;52.020;5.670;2023-03-21T03:10:38;14.85;;;7.00;;
69623;SDS011;56843;52.020;5.670;2023-03-21T03:17:49;10.52;;;5.00;;
69623;SDS011;56843;52.020;5.670;2023-03-21T03:19:28;13.60;;;6.93;;
69623;SDS011;56843;52.020;5.670;2023-03-21T03:21:05;11.80;;;6.68;;
69623;SDS011;56843;52.020;5.670;2023-03-21T03:24:35;10.73;;;4.60;;
69623;SDS011;56843;52.020;5.670;2023-03-21T03:27:46;11.52;;;6.88;;
69623;SDS011;56843;52.020;5.670;2023-03-21T03:29:20;13.15;;;6.78;;
69623;SDS011;56843;52.020;5.670;2023-03-21T03:30:54;18.40;;;7.32;;
69623;SDS011;56843;52.020;5.670;2023-03-21T03:34:24;16.90;;;7.15;;
69623;SDS011;56843;52.020;5.670;2023-03-21T03:36:01;13.38;;;6.00;;
69623;SDS011;56843;52.020;5.670;2023-03-21T03:37:33;13.63;;;6.55;;
69623;SDS011;56843;52.020;5.670;2023-03-21T03:39:09;14.27;;;6.43;;
69623;SDS011;56843;52.020;5.670;2023-03-21T03:40:45;16.13;;;7.23;;
69623;SDS011;56843;52.020;5.670;2023-03-21T03:44:25;15.98;;;7.10;;
69623;SDS011;56843;52.020;5.670;2023-03-21T03:46:05;17.08;;;6.30;;
69623;SDS011;56843;52.020;5.670;2023-03-21T03:47:52;15.75;;;6.72;;
69623;SDS011;56843;52.020;5.670;2023-03-21T03:49:39;15.48;;;6.50;;
69623;SDS011;56843;52.020;5.670;2023-03-21T03:51:17;17.35;;;6.60;;
69623;SDS011;56843;52.020;5.670;2023-03-21T03:53:26;17.25;;;6.00;;
69623;SDS011;56843;52.020;5.670;2023-03-21T03:55:03;10.63;;;5.38;;
69623;SDS011;56843;52.020;5.670;2023-03-21T03:56:39;13.17;;;5.40;;
69623;SDS011;56843;52.020;5.670;2023-03-21T03:58:10;14.77;;;6.47;;
69623;SDS011;56843;52.020;5.670;2023-03-21T03:59:42;12.63;;;5.85;;
69623;SDS011;56843;52.020;5.670;2023-03-21T04:01:35;11.75;;;5.70;;
69623;SDS011;56843;52.020;5.670;2023-03-21T04:03:06;13.40;;;6.95;;
69623;SDS011;56843;52.020;5.670;2023-03-21T04:04:38;14.35;;;5.93;;
69623;SDS011;56843;52.020;5.670;2023-03-21T04:06:11;16.00;;;6.57;;
69623;SDS011;56843;52.020;5.670;2023-03-21T04:07:41;11.60;;;5.50;;
69623;SDS011;56843;52.020;5.670;2023-03-21T04:09:12;14.65;;;5.53;;
69623;SDS011;56843;52.020;5.670;2023-03-21T04:10:45;11.65;;;5.25;;
69623;SDS011;56843;52.020;5.670;2023-03-21T04:12:17;12.88;;;5.68;;
69623;SDS011;56843;52.020;5.670;2023-03-21T04:14:01;12.15;;;5.20;;
69623;SDS011;56843;52.020;5.670;2023-03-21T04:15:32;20.70;;;5.43;;
69623;SDS011;56843;52.020;5.670;2023-03-21T04:17:09;16.75;;;5.57;;
69623;SDS011;56843;52.020;5.670;2023-03-21T04:18:40;13.80;;;5.07;;
69623;SDS011;56843;52.020;5.670;2023-03-21T04:20:12;14.40;;;5.55;;
69623;SDS011;56843;52.020;5.670;2023-03-21T04:21:43;10.63;;;5.20;;
69623;SDS011;56843;52.020;5.670;2023-03-21T04:23:16;13.63;;;6.75;;
69623;SDS011;56843;52.020;5.670;2023-03-21T04:24:49;9.35;;;4.57;;
69623;SDS011;56843;52.020;5.670;2023-03-21T04:26:21;13.85;;;5.40;;
69623;SDS011;56843;52.020;5.670;2023-03-21T04:28:11;12.35;;;4.88;;
69623;SDS011;56843;52.020;5.670;2023-03-21T04:29:47;9.95;;;5.28;;
69623;SDS011;56843;52.020;5.670;2023-03-21T04:31:30;8.47;;;4.10;;
69623;SDS011;56843;52.020;5.670;2023-03-21T04:33:13;9.97;;;4.50;;
69623;SDS011;56843;52.020;5.670;2023-03-21T04:34:48;12.85;;;5.55;;
69623;SDS011;56843;52.020;5.670;2023-03-21T04:36:23;14.77;;;5.10;;
69623;SDS011;56843;52.020;5.670;2023-03-21T04:37:59;12.90;;;5.00;;
69623;SDS011;56843;52.020;5.670;2023-03-21T04:39:29;13.25;;;4.88;;
69623;SDS011;56843;52.020;5.670;2023-03-21T04:41:00;9.60;;;5.10;;
69623;SDS011;56843;52.020;5.670;2023-03-21T04:42:33;14.88;;;4.72;;
69623;SDS011;56843;52.020;5.670;2023-03-21T04:44:04;9.77;;;4.57;;
69623;SDS011;56843;52.020;5.670;2023-03-21T04:45:35;10.50;;;4.28;;
69623;SDS011;56843;52.020;5.670;2023-03-21T04:47:06;16.37;;;5.10;;
69623;SDS011;56843;52.020;5.670;2023-03-21T04:48:37;13.23;;;5.28;;
69623;SDS011;56843;52.020;5.670;2023-03-21T04:50:08;10.48;;;4.72;;
69623;SDS011;56843;52.020;5.670;2023-03-21T04:51:39;15.10;;;5.07;;
69623;SDS011;56843;52.020;5.670;2023-03-21T04:53:14;11.18;;;4.75;;
69623;SDS011;56843;52.020;5.670;2023-03-21T04:54:45;9.30;;;4.33;;
69623;SDS011;56843;52.020;5.670;2023-03-21T04:56:16;10.88;;;4.53;;
69623;SDS011;56843;52.020;5.670;2023-03-21T04:57:47;15.27;;;4.60;;
69623;SDS011;56843;52.020;5.670;2023-03-21T04:59:18;9.70;;;4.15;;
69623;SDS011;56843;52.020;5.670;2023-03-21T05:00:50;8.25;;;3.55;;
69623;SDS011;56843;52.020;5.670;2023-03-21T05:02:21;11.43;;;4.13;;
69623;SDS011;56843;52.020;5.670;2023-03-21T05:03:52;17.10;;;4.90;;
69623;SDS011;56843;52.020;5.670;2023-03-21T05:05:23;10.57;;;4.00;;
69623;SDS011;56843;52.020;5.670;2023-03-21T05:06:55;8.50;;;3.93;;
69623;SDS011;56843;52.020;5.670;2023-03-21T05:08:28;10.33;;;4.13;;
69623;SDS011;56843;52.020;5.670;2023-03-21T05:09:58;18.40;;;4.25;;
69623;SDS011;56843;52.020;5.670;2023-03-21T05:11:29;12.03;;;4.10;;
69623;SDS011;56843;52.020;5.670;2023-03-21T05:13:00;9.52;;;3.90;;
69623;SDS011;56843;52.020;5.670;2023-03-21T05:14:31;15.05;;;4.22;;
69623;SDS011;56843;52.020;5.670;2023-03-21T05:16:02;9.02;;;3.28;;
69623;SDS011;56843;52.020;5.670;2023-03-21T05:17:33;11.03;;;4.10;;
69623;SDS011;56843;52.020;5.670;2023-03-21T05:19:03;8.90;;;4.57;;
69623;SDS011;56843;52.020;5.670;2023-03-21T05:20:39;15.20;;;4.70;;
69623;SDS011;56843;52.020;5.670;2023-03-21T05:22:13;12.07;;;3.63;;
69623;SDS011;56843;52.020;5.670;2023-03-21T05:23:48;9.63;;;4.10;;
69623;SDS011;56843;52.020;5.670;2023-03-21T05:25:26;8.55;;;3.63;;
69623;SDS011;56843;52.020;5.670;2023-03-21T05:27:12;11.05;;;3.67;;
69623;SDS011;56843;52.020;5.670;2023-03-21T05:28:47;13.70;;;4.50;;
69623;SDS011;56843;52.020;5.670;2023-03-21T05:30:18;14.03;;;4.53;;
69623;SDS011;56843;52.020;5.670;2023-03-21T05:31:52;7.33;;;3.20;;
69623;SDS011;56843;52.020;5.670;2023-03-21T05:33:23;10.27;;;3.90;;
69623;SDS011;56843;52.020;5.670;2023-03-21T05:34:54;12.82;;;3.10;;
69623;SDS011;56843;52.020;5.670;2023-03-21T05:36:26;8.77;;;3.15;;
69623;SDS011;56843;52.020;5.670;2023-03-21T05:37:56;6.43;;;2.30;;
69623;SDS011;56843;52.020;5.670;2023-03-21T05:39:28;7.50;;;2.13;;
69623;SDS011;56843;52.020;5.670;2023-03-21T05:41:06;7.68;;;2.28;;
69623;SDS011;56843;52.020;5.670;2023-03-21T05:42:37;6.77;;;1.83;;
69623;SDS011;56843;52.020;5.670;2023-03-21T05:44:16;5.82;;;1.95;;
69623;SDS011;56843;52.020;5.670;2023-03-21T05:45:47;10.05;;;2.55;;
69623;SDS011;56843;52.020;5.670;2023-03-21T05:47:19;8.63;;;2.35;;
69623;SDS011;56843;52.020;5.670;2023-03-21T05:48:51;7.43;;;2.67;;
69623;SDS011;56843;52.020;5.670;2023-03-21T05:50:21;5.90;;;2.03;;
69623;SDS011;56843;52.020;5.670;2023-03-21T05:52:05;9.30;;;2.25;;
69623;SDS011;56843;52.020;5.670;2023-03-21T05:53:36;8.80;;;2.50;;
69623;SDS011;56843;52.020;5.670;2023-03-21T05:55:07;11.67;;;2.40;;
69623;SDS011;56843;52.020;5.670;2023-03-21T05:56:37;8.90;;;2.55;;
69623;SDS011;56843;52.020;5.670;2023-03-21T05:58:11;9.20;;;2.72;;
69623;SDS011;56843;52.020;5.670;2023-03-21T05:59:42;5.40;;;1.92;;
69623;SDS011;56843;52.020;5.670;2023-03-21T06:01:13;6.07;;;2.20;;
69623;SDS011;56843;52.020;5.670;2023-03-21T06:02:48;7.00;;;2.05;;
69623;SDS011;56843;52.020;5.670;2023-03-21T06:04:38;5.10;;;2.15;;
69623;SDS011;56843;52.020;5.670;2023-03-21T06:06:08;5.43;;;2.10;;
69623;SDS011;56843;52.020;5.670;2023-03-21T06:07:44;6.47;;;1.80;;
69623;SDS011;56843;52.020;5.670;2023-03-21T06:09:15;8.45;;;2.38;;
69623;SDS011;56843;52.020;5.670;2023-03-21T06:10:51;8.23;;;2.00;;
69623;SDS011;56843;52.020;5.670;2023-03-21T06:12:21;5.18;;;1.88;;
69623;SDS011;56843;52.020;5.670;2023-03-21T06:14:12;6.87;;;2.57;;
69623;SDS011;56843;52.020;5.670;2023-03-21T06:15:43;5.07;;;2.03;;
69623;SDS011;56843;52.020;5.670;2023-03-21T06:17:19;5.93;;;1.90;;
69623;SDS011;56843;52.020;5.670;2023-03-21T06:18:57;3.85;;;1.50;;
69623;SDS011;56843;52.020;5.670;2023-03-21T06:20:48;6.13;;;2.28;;
69623;SDS011;56843;52.020;5.670;2023-03-21T06:22:19;5.60;;;1.95;;
69623;SDS011;56843;52.020;5.670;2023-03-21T06:23:49;6.07;;;1.80;;
69623;SDS011;56843;52.020;5.670;2023-03-21T06:25:23;5.40;;;2.33;;
69623;SDS011;56843;52.020;5.670;2023-03-21T06:26:53;9.67;;;1.90;;
69623;SDS011;56843;52.020;5.670;2023-03-21T06:28:25;5.45;;;2.08;;
69623;SDS011;56843;52.020;5.670;2023-03-21T06:29:56;4.60;;;1.60;;
69623;SDS011;56843;52.020;5.670;2023-03-21T06:31:30;6.63;;;2.17;;
69623;SDS011;56843;52.020;5.670;2023-03-21T06:33:05;9.55;;;2.20;;
69623;SDS011;56843;52.020;5.670;2023-03-21T06:34:35;8.30;;;2.10;;
69623;SDS011;56843;52.020;5.670;2023-03-21T06:36:06;8.23;;;2.90;;
69623;SDS011;56843;52.020;5.670;2023-03-21T06:37:37;5.40;;;1.65;;
69623;SDS011;56843;52.020;5.670;2023-03-21T06:39:08;5.57;;;1.17;;
69623;SDS011;56843;52.020;5.670;2023-03-21T06:40:44;7.70;;;1.02;;
69623;SDS011;56843;52.020;5.670;2023-03-21T06:42:14;11.80;;;1.55;;
69623;SDS011;56843;52.020;5.670;2023-03-21T06:43:45;5.88;;;1.65;;
69623;SDS011;56843;52.020;5.670;2023-03-21T06:45:17;8.48;;;1.27;;
69623;SDS011;56843;52.020;5.670;2023-03-21T06:46:48;5.47;;;1.57;;
69623;SDS011;56843;52.020;5.670;2023-03-21T06:48:22;6.10;;;1.58;;
69623;SDS011;56843;52.020;5.670;2023-03-21T06:49:54;4.45;;;1.60;;
69623;SDS011;56843;52.020;5.670;2023-03-21T06:51:24;7.53;;;1.90;;
69623;SDS011;56843;52.020;5.670;2023-03-21T06:53:05;4.72;;;1.23;;
69623;SDS011;56843;52.020;5.670;2023-03-21T06:54:46;4.53;;;1.60;;
69623;SDS011;56843;52.020;5.670;2023-03-21T06:56:19;4.60;;;1.30;;
69623;SDS011;56843;52.020;5.670;2023-03-21T06:57:49;6.47;;;2.17;;
69623;SDS011;56843;52.020;5.670;2023-03-21T06:59:20;4.53;;;1.40;;
69623;SDS011;56843;52.020;5.670;2023-03-21T07:00:59;3.40;;;1.58;;
69623;SDS011;56843;52.020;5.670;2023-03-21T07:02:30;3.93;;;1.40;;
69623;SDS011;56843;52.020;5.670;2023-03-21T07:04:07;8.87;;;2.00;;
69623;SDS011;56843;52.020;5.670;2023-03-21T07:05:39;5.00;;;1.67;;
69623;SDS011;56843;52.020;5.670;2023-03-21T07:07:09;6.47;;;1.67;;
69623;SDS011;56843;52.020;5.670;2023-03-21T07:08:40;6.38;;;1.95;;
69623;SDS011;56843;52.020;5.670;2023-03-21T07:10:12;5.30;;;1.83;;
69623;SDS011;56843;52.020;5.670;2023-03-21T07:11:55;4.68;;;1.50;;
69623;SDS011;56843;52.020;5.670;2023-03-21T07:13:30;5.63;;;1.90;;
69623;SDS011;56843;52.020;5.670;2023-03-21T07:15:07;4.77;;;1.73;;
69623;SDS011;56843;52.020;5.670;2023-03-21T07:16:39;4.40;;;1.70;;
69623;SDS011;56843;52.020;5.670;2023-03-21T07:18:10;4.20;;;1.40;;
69623;SDS011;56843;52.020;5.670;2023-03-21T07:19:40;9.77;;;2.20;;
69623;SDS011;56843;52.020;5.670;2023-03-21T07:21:11;5.40;;;1.73;;
69623;SDS011;56843;52.020;5.670;2023-03-21T07:22:43;4.63;;;1.73;;
69623;SDS011;56843;52.020;5.670;2023-03-21T07:24:13;4.07;;;1.53;;
69623;SDS011;56843;52.020;5.670;2023-03-21T07:25:45;5.50;;;1.70;;
69623;SDS011;56843;52.020;5.670;2023-03-21T07:27:17;9.37;;;2.03;;
69623;SDS011;56843;52.020;5.670;2023-03-21T07:28:49;5.50;;;1.63;;
69623;SDS011;56843;52.020;5.670;2023-03-21T07:30:19;8.63;;;1.75;;
69623;SDS011;56843;52.020;5.670;2023-03-21T07:31:50;7.20;;;1.97;;
69623;SDS011;56843;52.020;5.670;2023-03-21T07:33:20;4.97;;;1.70;;
69623;SDS011;56843;52.020;5.670;2023-03-21T07:34:52;4.63;;;1.67;;
69623;SDS011;56843;52.020;5.670;2023-03-21T07:36:22;4.27;;;1.60;;
69623;SDS011;56843;52.020;5.670;2023-03-21T07:37:53;6.13;;;1.52;;
69623;SDS011;56843;52.020;5.670;2023-03-21T07:39:25;7.80;;;2.03;;
69623;SDS011;56843;52.020;5.670;2023-03-21T07:40:57;4.45;;;1.70;;
69623;SDS011;56843;52.020;5.670;2023-03-21T07:42:29;6.10;;;2.10;;
69623;SDS011;56843;52.020;5.670;2023-03-21T07:44:03;5.30;;;1.60;;
69623;SDS011;56843;52.020;5.670;2023-03-21T07:45:36;5.47;;;1.92;;
69623;SDS011;56843;52.020;5.670;2023-03-21T07:47:11;4.53;;;1.73;;
69623;SDS011;56843;52.020;5.670;2023-03-21T07:48:41;6.70;;;2.00;;
69623;SDS011;56843;52.020;5.670;2023-03-21T07:50:12;4.83;;;1.87;;
69623;SDS011;56843;52.020;5.670;2023-03-21T07:51:43;6.55;;;1.77;;
69623;SDS011;56843;52.020;5.670;2023-03-21T07:53:14;6.20;;;2.35;;
69623;SDS011;56843;52.020;5.670;2023-03-21T07:54:44;6.67;;;1.90;;
69623;SDS011;56843;52.020;5.670;2023-03-21T07:56:15;5.77;;;1.83;;
69623;SDS011;56843;52.020;5.670;2023-03-21T07:57:48;7.20;;;2.15;;
69623;SDS011;56843;52.020;5.670;2023-03-21T07:59:20;7.18;;;1.77;;
69623;SDS011;56843;52.020;5.670;2023-03-21T08:00:51;3.80;;;1.27;;
69623;SDS011;56843;52.020;5.670;2023-03-21T08:02:22;4.32;;;1.50;;
69623;SDS011;56843;52.020;5.670;2023-03-21T08:03:52;8.40;;;1.70;;
69623;SDS011;56843;52.020;5.670;2023-03-21T08:05:23;6.18;;;1.63;;
69623;SDS011;56843;52.020;5.670;2023-03-21T08:07:04;5.00;;;1.90;;
69623;SDS011;56843;52.020;5.670;2023-03-21T08:08:35;5.87;;;1.67;;
69623;SDS011;56843;52.020;5.670;2023-03-21T08:10:06;3.85;;;1.40;;
69623;SDS011;56843;52.020;5.670;2023-03-21T08:11:37;4.43;;;1.60;;
69623;SDS011;56843;52.020;5.670;2023-03-21T08:13:09;4.40;;;1.53;;
69623;SDS011;56843;52.020;5.670;2023-03-21T08:14:39;5.47;;;1.58;;
69623;SDS011;56843;52.020;5.670;2023-03-21T08:16:10;5.63;;;1.40;;
69623;SDS011;56843;52.020;5.670;2023-03-21T08:17:41;4.65;;;1.45;;
69623;SDS011;56843;52.020;5.670;2023-03-21T08:19:14;4.93;;;1.53;;
69623;SDS011;56843;52.020;5.670;2023-03-21T08:20:45;6.60;;;1.60;;
69623;SDS011;56843;52.020;5.670;2023-03-21T08:22:15;7.53;;;1.97;;
69623;SDS011;56843;52.020;5.670;2023-03-21T08:23:46;3.88;;;1.40;;
69623;SDS011;56843;52.020;5.670;2023-03-21T08:25:17;3.40;;;1.37;;
69623;SDS011;56843;52.020;5.670;2023-03-21T08:26:49;4.28;;;1.48;;
69623;SDS011;56843;52.020;5.670;2023-03-21T08:28:20;6.38;;;1.42;;
69623;SDS011;56843;52.020;5.670;2023-03-21T08:29:52;4.20;;;1.10;;
69623;SDS011;56843;52.020;5.670;2023-03-21T08:31:22;5.83;;;1.63;;
69623;SDS011;56843;52.020;5.670;2023-03-21T08:32:56;5.43;;;1.65;;
69623;SDS011;56843;52.020;5.670;2023-03-21T08:34:27;5.78;;;1.35;;
69623;SDS011;56843;52.020;5.670;2023-03-21T08:35:58;5.43;;;1.50;;
69623;SDS011;56843;52.020;5.670;2023-03-21T08:37:29;9.23;;;2.08;;
69623;SDS011;56843;52.020;5.670;2023-03-21T08:39:00;7.22;;;1.92;;
69623;SDS011;56843;52.020;5.670;2023-03-21T08:40:34;4.90;;;1.23;;
69623;SDS011;56843;52.020;5.670;2023-03-21T08:42:05;6.70;;;1.60;;
69623;SDS011;56843;52.020;5.670;2023-03-21T08:43:36;3.95;;;1.20;;
69623;SDS011;56843;52.020;5.670;2023-03-21T08:45:06;4.60;;;1.43;;
69623;SDS011;56843;52.020;5.670;2023-03-21T08:46:38;5.18;;;1.60;;
69623;SDS011;56843;52.020;5.670;2023-03-21T08:48:09;5.00;;;1.30;;
69623;SDS011;56843;52.020;5.670;2023-03-21T08:49:39;4.35;;;1.15;;
69623;SDS011;56843;52.020;5.670;2023-03-21T08:51:11;6.60;;;1.27;;
69623;SDS011;56843;52.020;5.670;2023-03-21T08:52:41;5.13;;;1.57;;
69623;SDS011;56843;52.020;5.670;2023-03-21T08:54:21;4.73;;;2.00;;
69623;SDS011;56843;52.020;5.670;2023-03-21T08:55:51;3.33;;;1.20;;
69623;SDS011;56843;52.020;5.670;2023-03-21T08:57:22;4.83;;;1.43;;
69623;SDS011;56843;52.020;5.670;2023-03-21T08:58:53;4.63;;;1.50;;
69623;SDS011;56843;52.020;5.670;2023-03-21T09:00:23;4.73;;;1.20;;
69623;SDS011;56843;52.020;5.670;2023-03-21T09:01:54;3.58;;;1.17;;
69623;SDS011;56843;52.020;5.670;2023-03-21T09:03:25;7.97;;;1.20;;
69623;SDS011;56843;52.020;5.670;2023-03-21T09:04:56;4.10;;;1.30;;
69623;SDS011;56843;52.020;5.670;2023-03-21T09:06:27;4.50;;;1.10;;
69623;SDS011;56843;52.020;5.670;2023-03-21T09:07:59;6.30;;;1.13;;
69623;SDS011;56843;52.020;5.670;2023-03-21T09:09:30;4.72;;;1.27;;
69623;SDS011;56843;52.020;5.670;2023-03-21T09:11:01;4.47;;;1.40;;
69623;SDS011;56843;52.020;5.670;2023-03-21T09:12:32;7.17;;;1.93;;
69623;SDS011;56843;52.020;5.670;2023-03-21T09:14:03;5.68;;;1.80;;
69623;SDS011;56843;52.020;5.670;2023-03-21T09:15:34;3.83;;;1.45;;
69623;SDS011;56843;52.020;5.670;2023-03-21T09:17:05;4.37;;;1.30;;
69623;SDS011;56843;52.020;5.670;2023-03-21T09:18:35;4.28;;;1.50;;
69623;SDS011;56843;52.020;5.670;2023-03-21T09:20:18;5.40;;;1.63;;
69623;SDS011;56843;52.020;5.670;2023-03-21T09:21:51;6.32;;;1.60;;
69623;SDS011;56843;52.020;5.670;2023-03-21T09:23:23;4.75;;;1.60;;
69623;SDS011;56843;52.020;5.670;2023-03-21T09:24:54;4.40;;;1.60;;
69623;SDS011;56843;52.020;5.670;2023-03-21T09:26:26;5.30;;;1.33;;
69623;SDS011;56843;52.020;5.670;2023-03-21T09:27:58;5.78;;;1.77;;
69623;SDS011;56843;52.020;5.670;2023-03-21T09:29:29;4.23;;;1.30;;
69623;SDS011;56843;52.020;5.670;2023-03-21T09:31:01;4.03;;;1.60;;
69623;SDS011;56843;52.020;5.670;2023-03-21T09:32:33;5.18;;;1.42;;
69623;SDS011;56843;52.020;5.670;2023-03-21T09:34:04;4.80;;;1.63;;
69623;SDS011;56843;52.020;5.670;2023-03-21T09:35:34;5.35;;;1.95;;
69623;SDS011;56843;52.020;5.670;2023-03-21T09:37:08;5.87;;;1.90;;
69623;SDS011;56843;52.020;5.670;2023-03-21T09:38:42;4.00;;;1.40;;
69623;SDS011;56843;52.020;5.670;2023-03-21T09:46:10;6.13;;;1.60;;
69623;SDS011;56843;52.020;5.670;2023-03-21T09:47:52;4.47;;;1.63;;
69623;SDS011;56843;52.020;5.670;2023-03-21T09:49:23;4.70;;;1.48;;
69623;SDS011;56843;52.020;5.670;2023-03-21T09:51:00;5.22;;;1.88;;
69623;SDS011;56843;52.020;5.670;2023-03-21T09:52:41;3.25;;;1.30;;
69623;SDS011;56843;52.020;5.670;2023-03-21T09:54:32;6.95;;;1.75;;
69623;SDS011;56843;52.020;5.670;2023-03-21T09:56:07;7.68;;;1.52;;
69623;SDS011;56843;52.020;5.670;2023-03-21T09:57:41;4.97;;;1.67;;
69623;SDS011;56843;52.020;5.670;2023-03-21T09:59:33;4.50;;;1.10;;
69623;SDS011;56843;52.020;5.670;2023-03-21T10:01:12;5.37;;;1.30;;
69623;SDS011;56843;52.020;5.670;2023-03-21T10:03:04;5.18;;;1.42;;
69623;SDS011;56843;52.020;5.670;2023-03-21T10:04:45;5.47;;;1.35;;
69623;SDS011;56843;52.020;5.670;2023-03-21T10:06:16;6.60;;;1.67;;
69623;SDS011;56843;52.020;5.670;2023-03-21T10:07:52;3.63;;;1.50;;
69623;SDS011;56843;52.020;5.670;2023-03-21T10:09:27;6.80;;;1.50;;